Time;durP1;ratioP1;P1;durP2;ratioP2;P2;SDS_P1;SDS_P2;PMS_P1;PMS_P2;Temp;Humidity;BMP_temperature;BMP_pressure;BME280_temperature;BME280_humidity;BME280_pressure;Samples;Min_cycle;Max_cycle;Signal;HPM_P1;HPM_P2
2023/11/08 00:03:32;;;;;;;1.27;0.90;;;;;;;9.02;58.68;99661.38;10504353;28;20148;-63
2023/11/08 00:08:34;;;;;;;7.55;1.95;;;;;;;9.07;58.50;99667.19;10501953;28;20070;-63
2023/11/08 00:13:39;;;;;;;3.78;1.50;;;;;;;8.98;58.52;99659.88;10523504;28;20801;-63
2023/11/08 00:18:41;;;;;;;1.60;0.82;;;;;;;9.00;58.63;99668.44;10536581;27;20040;-64
2023/11/08 00:23:43;;;;;;;2.88;0.82;;;;;;;8.82;58.89;99659.91;10521920;28;20132;-64
2023/11/08 00:28:46;;;;;;;1.17;0.80;;;;;;;8.85;58.87;99664.13;10518881;28;20127;-64
2023/11/08 00:33:48;;;;;;;0.60;0.60;;;;;;;8.89;58.89;99665.63;10521806;28;20522;-64
2023/11/08 00:38:50;;;;;;;3.50;0.95;;;;;;;8.95;58.86;99672.25;10536297;27;20101;-64
2023/11/08 00:43:56;;;;;;;0.60;0.47;;;;;;;9.09;58.70;99677.53;10520427;28;20135;-64
2023/11/08 00:49:01;;;;;;;0.43;0.43;;;;;;;9.11;58.90;99681.72;10519514;28;20488;-64
2023/11/08 00:54:03;;;;;;;1.25;0.95;;;;;;;9.08;58.84;99681.88;10520959;28;20040;-64
2023/11/08 00:59:05;;;;;;;3.08;1.10;;;;;;;9.03;58.55;99683.94;10519615;28;20048;-64
2023/11/08 01:04:11;;;;;;;0.73;0.73;;;;;;;8.99;58.66;99685.03;10517934;28;20415;-64
2023/11/08 01:09:15;;;;;;;1.85;0.60;;;;;;;8.94;58.86;99687.06;10520465;28;20495;-64
2023/11/08 01:14:18;;;;;;;2.28;1.27;;;;;;;8.94;59.02;99688.81;10498488;28;20051;-63
2023/11/08 01:19:20;;;;;;;2.05;1.00;;;;;;;8.82;59.31;99690.34;10502185;28;20518;-63
2023/11/08 01:24:22;;;;;;;1.50;0.75;;;;;;;8.97;59.12;99694.72;10519882;28;20040;-63
2023/11/08 01:29:25;;;;;;;1.92;0.80;;;;;;;8.95;59.18;99687.91;10500564;28;20202;-63
2023/11/08 01:34:28;;;;;;;3.13;1.00;;;;;;;9.06;58.90;99688.97;10519697;28;20497;-63
2023/11/08 01:39:30;;;;;;;3.58;1.48;;;;;;;9.04;58.92;99701.25;10518835;28;20036;-63
2023/11/08 01:44:32;;;;;;;3.45;0.90;;;;;;;9.01;59.00;99693.63;10517265;28;20071;-63
2023/11/08 01:49:35;;;;;;;2.28;1.30;;;;;;;9.09;59.04;99690.56;10502589;28;20137;-63
2023/11/08 01:54:43;;;;;;;2.63;1.00;;;;;;;9.09;58.81;99682.72;10500267;28;20131;-63
2023/11/08 01:59:46;;;;;;;2.92;1.40;;;;;;;8.95;59.26;99688.75;10500455;28;20043;-63
2023/11/08 02:04:48;;;;;;;2.65;1.50;;;;;;;8.92;59.38;99691.53;10517135;28;20044;-62
2023/11/08 02:09:50;;;;;;;3.90;1.45;;;;;;;8.83;59.56;99692.06;10516625;28;20135;-63
2023/11/08 02:15:06;;;;;;;4.78;1.35;;;;;;;8.77;59.83;99701.03;10499457;28;20131;-63
2023/11/08 02:20:11;;;;;;;2.85;1.17;;;;;;;8.60;60.08;99700.31;10493262;28;20047;-63
2023/11/08 02:25:14;;;;;;;0.77;0.70;;;;;;;8.54;60.43;99695.44;10516870;28;20040;-63
2023/11/08 02:30:17;;;;;;;2.10;1.33;;;;;;;8.54;60.32;99685.00;10533518;27;20040;-63
2023/11/08 02:35:19;;;;;;;1.95;0.85;;;;;;;8.44;60.65;99704.69;10514649;28;20048;-63
2023/11/08 02:40:21;;;;;;;0.57;0.57;;;;;;;8.38;60.94;99697.19;10513597;28;20052;-63
2023/11/08 02:45:23;;;;;;;1.35;1.05;;;;;;;8.40;60.80;99688.38;10516404;28;20123;-63
2023/11/08 02:50:28;;;;;;;1.30;0.90;;;;;;;8.35;60.97;99706.03;10510710;28;20076;-63
2023/11/08 02:55:31;;;;;;;2.85;1.23;;;;;;;8.41;60.78;99699.63;10514309;28;20121;-63
2023/11/08 03:00:33;;;;;;;2.65;0.63;;;;;;;8.43;60.85;99697.78;10513502;28;20042;-63
2023/11/08 03:05:35;;;;;;;4.13;1.20;;;;;;;8.50;60.73;99689.56;10515099;28;20052;-63
2023/11/08 03:10:38;;;;;;;1.65;1.25;;;;;;;8.28;61.26;99701.22;10498043;28;20105;-63
2023/11/08 03:15:40;;;;;;;5.65;1.08;;;;;;;8.33;61.08;99702.66;10516199;28;20230;-63
2023/11/08 03:20:42;;;;;;;3.45;1.38;;;;;;;8.29;61.21;99708.09;10512781;28;20048;-64
2023/11/08 03:25:44;;;;;;;3.78;0.70;;;;;;;8.32;61.23;99702.75;10515227;28;20044;-64
2023/11/08 03:30:46;;;;;;;1.65;0.60;;;;;;;8.32;61.01;99703.59;10514501;28;20063;-64
2023/11/08 03:35:48;;;;;;;0.90;0.73;;;;;;;8.32;61.12;99706.19;10514428;28;20059;-64
2023/11/08 03:40:50;;;;;;;1.88;0.82;;;;;;;8.37;61.07;99711.97;10515374;28;20140;-63
2023/11/08 03:45:52;;;;;;;1.45;0.90;;;;;;;8.34;61.16;99721.75;10498110;28;20063;-63
2023/11/08 03:50:54;;;;;;;5.43;1.38;;;;;;;8.33;61.36;99730.47;10511494;28;20510;-63
2023/11/08 03:55:56;;;;;;;1.88;0.90;;;;;;;8.40;61.29;99719.66;10513815;28;20089;-63
2023/11/08 04:00:58;;;;;;;4.72;0.80;;;;;;;8.43;61.33;99718.63;10512812;28;20130;-64
2023/11/08 04:06:00;;;;;;;1.15;0.70;;;;;;;8.40;61.44;99732.69;10513986;28;20596;-64
2023/11/08 04:11:02;;;;;;;1.73;1.20;;;;;;;8.45;61.24;99728.03;10529108;28;20052;-64
2023/11/08 04:16:05;;;;;;;2.47;1.02;;;;;;;8.44;61.32;99735.97;10492834;28;20044;-64
2023/11/08 04:21:07;;;;;;;1.27;0.88;;;;;;;8.39;61.45;99735.34;10503546;28;20056;-63
2023/11/08 04:26:09;;;;;;;0.88;0.82;;;;;;;8.49;61.21;99733.94;10503540;28;20046;-63
2023/11/08 04:31:11;;;;;;;3.03;0.95;;;;;;;8.50;61.22;99754.72;10519868;28;20487;-64
2023/11/08 04:36:13;;;;;;;2.80;0.93;;;;;;;8.70;60.85;99749.25;10520720;28;20120;-63
2023/11/08 04:41:17;;;;;;;1.00;0.80;;;;;;;8.69;60.84;99751.91;10502846;28;20560;-64
2023/11/08 04:46:19;;;;;;;1.30;0.80;;;;;;;8.77;60.76;99749.75;10519152;28;20519;-64
2023/11/08 04:51:21;;;;;;;2.70;1.20;;;;;;;8.82;60.40;99732.09;10520948;28;20500;-64
2023/11/08 04:56:23;;;;;;;4.57;1.25;;;;;;;8.76;60.43;99742.84;10520959;28;20121;-63
2023/11/08 05:01:28;;;;;;;2.00;1.00;;;;;;;8.44;61.07;99749.84;10518956;28;20173;-63
2023/11/08 05:06:30;;;;;;;3.90;0.90;;;;;;;8.40;61.32;99750.06;10531558;27;20040;-64
2023/11/08 05:11:32;;;;;;;3.22;0.98;;;;;;;8.39;61.38;99758.81;10521700;28;20040;-63
2023/11/08 05:16:34;;;;;;;0.95;0.63;;;;;;;8.23;61.81;99758.78;10518436;28;20044;-64
2023/11/08 05:21:38;;;;;;;1.67;0.80;;;;;;;8.28;61.62;99751.53;10519602;28;20156;-63
2023/11/08 05:26:40;;;;;;;1.42;0.70;;;;;;;8.29;61.66;99766.28;10518659;28;20054;-64
2023/11/08 05:31:42;;;;;;;4.05;1.33;;;;;;;8.27;61.74;99767.28;10518252;28;20044;-63
2023/11/08 05:36:44;;;;;;;1.90;1.15;;;;;;;8.27;61.52;99768.13;10497499;28;20055;-64
2023/11/08 05:41:46;;;;;;;1.23;0.80;;;;;;;8.31;61.51;99774.00;10500314;28;20058;-64
2023/11/08 05:46:48;;;;;;;4.18;1.50;;;;;;;8.44;61.34;99781.09;10517142;28;20133;-64
2023/11/08 05:51:51;;;;;;;1.63;1.00;;;;;;;8.54;61.04;99792.72;10500016;28;20044;-63
2023/11/08 05:56:53;;;;;;;3.25;1.00;;;;;;;8.63;60.80;99788.75;10517482;28;20557;-63
2023/11/08 06:01:55;;;;;;;1.67;0.90;;;;;;;8.48;61.03;99787.00;10518366;28;20239;-63
2023/11/08 06:06:57;;;;;;;4.65;1.55;;;;;;;8.55;61.07;99772.69;10514975;28;20043;-64
2023/11/08 06:12:00;;;;;;;1.92;1.20;;;;;;;8.46;60.93;99781.00;10518274;28;20051;-63
2023/11/08 06:17:02;;;;;;;1.58;0.93;;;;;;;8.42;61.00;99776.91;10518079;28;20423;-64
2023/11/08 06:22:04;;;;;;;2.33;1.00;;;;;;;8.45;60.87;99784.53;10517365;28;20151;-63
2023/11/08 06:27:05;;;;;;;0.70;0.70;;;;;;;8.44;60.90;99785.47;10516763;28;20674;-63
2023/11/08 06:32:08;;;;;;;4.97;0.80;;;;;;;8.41;60.79;99789.06;10518193;28;20131;-63
2023/11/08 06:37:10;;;;;;;1.85;0.95;;;;;;;8.41;60.81;99799.50;10496241;28;20131;-64
2023/11/08 06:42:12;;;;;;;2.38;1.20;;;;;;;8.48;60.61;99819.13;10514248;28;20074;-63
2023/11/08 06:47:15;;;;;;;2.58;1.02;;;;;;;8.55;60.54;99819.59;10517056;28;20609;-64
2023/11/08 06:52:17;;;;;;;1.60;1.00;;;;;;;8.62;60.48;99823.59;10514546;28;20044;-64
2023/11/08 06:57:19;;;;;;;1.58;0.98;;;;;;;8.70;60.21;99824.84;10512576;28;20537;-64
2023/11/08 07:02:22;;;;;;;4.65;1.67;;;;;;;8.98;59.94;99829.41;10496583;28;20056;-63
2023/11/08 07:07:24;;;;;;;1.50;1.30;;;;;;;9.19;59.49;99840.44;10510892;28;20048;-64
2023/11/08 07:12:26;;;;;;;1.55;1.20;;;;;;;9.20;59.37;99840.34;10511853;28;20214;-64
2023/11/08 07:17:29;;;;;;;1.05;0.90;;;;;;;9.17;59.44;99840.53;10504905;28;20044;-65
2023/11/08 07:22:33;;;;;;;1.80;0.95;;;;;;;9.23;59.47;99842.78;10504360;28;20044;-64
2023/11/08 07:27:36;;;;;;;3.05;1.30;;;;;;;9.27;59.24;99853.91;10505752;28;20501;-64
2023/11/08 07:32:39;;;;;;;2.40;1.10;;;;;;;9.36;58.88;99853.41;10507266;28;20048;-64
2023/11/08 07:37:41;;;;;;;2.03;1.15;;;;;;;9.30;58.87;99851.94;10518038;28;20956;-63
2023/11/08 07:42:43;;;;;;;3.85;1.15;;;;;;;10.45;56.49;99848.69;10506695;28;20059;-64
2023/11/08 07:47:45;;;;;;;1.83;1.02;;;;;;;10.20;56.96;99843.25;10506069;28;20056;-64
2023/11/08 07:52:48;;;;;;;1.05;0.82;;;;;;;10.13;56.78;99844.56;10478057;28;20070;-64
2023/11/08 07:57:53;;;;;;;4.20;1.85;;;;;;;10.16;57.11;99851.34;10513478;28;20036;-64
2023/11/08 08:02:55;;;;;;;1.50;0.75;;;;;;;10.37;56.43;99853.53;10496003;28;20535;-63
2023/11/08 08:07:58;;;;;;;1.55;0.90;;;;;;;10.55;56.35;99856.81;10515704;28;20513;-63
2023/11/08 08:13:01;;;;;;;0.77;0.75;;;;;;;10.56;56.08;99861.13;10496550;28;20048;-63
2023/11/08 08:18:04;;;;;;;3.33;1.20;;;;;;;10.44;55.75;99864.44;10509792;28;20046;-64
2023/11/08 08:23:15;;;;;;;1.75;0.80;;;;;;;10.40;56.00;99886.47;10514836;28;20113;-64
2023/11/08 08:28:18;;;;;;;1.50;1.02;;;;;;;10.65;54.81;99884.06;10512999;28;20055;-64
2023/11/08 08:33:20;;;;;;;2.30;1.10;;;;;;;10.88;55.06;99888.75;10516574;28;20560;-64
2023/11/08 08:38:24;;;;;;;1.27;0.77;;;;;;;11.01;53.77;99887.03;10512374;28;20401;-64
2023/11/08 08:43:26;;;;;;;2.20;0.90;;;;;;;10.86;54.59;99895.84;10516635;28;20139;-65
2023/11/08 08:48:28;;;;;;;1.95;0.90;;;;;;;10.69;54.67;99892.56;10509273;28;20052;-65
2023/11/08 08:53:30;;;;;;;0.68;0.50;;;;;;;10.72;54.38;99882.78;10511718;28;20048;-65
2023/11/08 08:58:34;;;;;;;1.55;1.00;;;;;;;10.69;54.03;99885.56;10511922;28;20051;-65
2023/11/08 09:03:36;;;;;;;2.20;0.93;;;;;;;10.76;54.18;99886.91;10490971;28;20040;-65
2023/11/08 09:08:39;;;;;;;2.97;1.15;;;;;;;10.66;54.04;99888.38;10510285;28;20032;-64
2023/11/08 09:13:40;;;;;;;2.17;0.60;;;;;;;10.65;54.05;99880.63;10513694;28;20048;-65
2023/11/08 09:18:43;;;;;;;1.65;0.90;;;;;;;10.78;53.74;99882.41;10510884;28;20050;-65
2023/11/08 09:23:45;;;;;;;6.28;1.55;;;;;;;10.67;53.54;99870.91;10511689;28;20707;-65
2023/11/08 09:28:47;;;;;;;6.70;1.45;;;;;;;10.55;53.60;99884.72;10510851;28;20048;-65
2023/11/08 09:33:49;;;;;;;3.30;0.90;;;;;;;10.54;53.65;99885.66;10513088;28;20044;-65
2023/11/08 09:38:55;;;;;;;0.95;0.90;;;;;;;10.41;54.05;99888.16;10509793;28;20044;-70
2023/11/08 09:44:02;;;;;;;1.63;0.80;;;;;;;10.69;53.59;99885.56;10514763;28;20048;-70
2023/11/08 09:49:05;;;;;;;1.55;0.88;;;;;;;10.68;53.54;99880.44;10510544;28;20048;-70
2023/11/08 09:54:12;;;;;;;0.90;0.80;;;;;;;10.92;52.50;99874.56;10513520;28;20138;-70
2023/11/08 09:59:17;;;;;;;0.75;0.70;;;;;;;10.77;53.16;99875.47;10510359;28;20131;-70
2023/11/08 10:04:21;;;;;;;2.72;0.80;;;;;;;10.76;53.11;99872.97;10495669;28;20140;-68
2023/11/08 10:09:36;;;;;;;1.48;0.90;;;;;;;10.75;53.13;99871.28;10506682;28;20081;-68
2023/11/08 10:14:44;;;;;;;0.85;0.70;;;;;;;10.74;52.51;99869.59;10513293;28;20072;-69
2023/11/08 10:19:47;;;;;;;1.08;0.82;;;;;;;10.57;52.67;99869.78;10492668;28;20155;-69
2023/11/08 10:25:02;;;;;;;1.88;1.05;;;;;;;10.56;51.88;99862.88;10467063;28;20126;-69
2023/11/08 10:30:20;;;;;;;1.95;1.10;;;;;;;10.64;51.10;99877.19;10486022;28;20442;-69
2023/11/08 10:35:23;;;;;;;1.08;0.50;;;;;;;10.69;51.78;99882.09;10498066;28;20039;-69
2023/11/08 10:40:31;;;;;;;1.08;0.47;;;;;;;10.43;50.40;99884.53;10475336;28;20059;-69
2023/11/08 10:45:35;;;;;;;0.30;0.30;;;;;;;10.52;50.59;99880.53;10483982;28;20054;-69
2023/11/08 10:50:43;;;;;;;1.00;0.82;;;;;;;10.71;51.45;99886.31;10510813;28;20133;-68
2023/11/08 10:55:46;;;;;;;6.20;1.05;;;;;;;10.73;51.13;99873.13;10510576;28;20051;-69
2023/11/08 11:00:51;;;;;;;2.28;1.30;;;;;;;10.88;51.09;99870.44;10510650;28;20458;-68
2023/11/08 11:05:56;;;;;;;1.55;0.68;;;;;;;10.94;50.63;99856.97;10507836;28;20409;-69
2023/11/08 11:10:59;;;;;;;0.85;0.80;;;;;;;10.99;51.10;99854.09;10506141;28;20098;-69
2023/11/08 11:16:13;;;;;;;3.17;1.13;;;;;;;11.24;49.14;99842.00;10507504;28;21202;-68
2023/11/08 11:21:39;;;;;;;1.48;0.85;;;;;;;11.66;50.14;99840.16;10504091;28;20055;-67
2023/11/08 11:26:46;;;;;;;1.15;0.60;;;;;;;11.79;49.50;99838.38;10505928;28;20321;-67
2023/11/08 11:31:51;;;;;;;4.25;1.27;;;;;;;11.86;50.08;99818.72;10508843;28;20130;-67
2023/11/08 11:37:01;;;;;;;0.50;0.50;;;;;;;11.84;49.51;99817.97;10489552;28;20052;-67
2023/11/08 11:42:12;;;;;;;1.15;0.73;;;;;;;12.24;48.85;99809.09;10507973;28;20408;-68
2023/11/08 11:47:17;;;;;;;0.40;0.40;;;;;;;12.24;48.76;99800.38;10507116;28;20060;-69
2023/11/08 11:52:24;;;;;;;1.33;0.80;;;;;;;12.12;48.95;99788.97;10506389;28;20136;-69
2023/11/08 11:57:32;;;;;;;3.38;0.80;;;;;;;12.02;48.77;99787.91;10506685;28;20425;-70
2023/11/08 12:02:35;;;;;;;0.43;0.40;;;;;;;12.15;48.31;99788.75;10508781;28;20100;-70
2023/11/08 12:07:38;;;;;;;0.80;0.60;;;;;;;12.12;48.94;99794.19;10502846;28;20048;-70
2023/11/08 12:12:43;;;;;;;0.70;0.70;;;;;;;12.02;48.78;99778.28;10510820;28;20062;-70
2023/11/08 12:17:53;;;;;;;0.93;0.80;;;;;;;11.82;49.10;99768.31;10506854;28;20508;-69
2023/11/08 12:22:56;;;;;;;0.77;0.60;;;;;;;11.71;48.84;99769.94;10504946;28;20070;-70
2023/11/08 12:28:00;;;;;;;2.20;0.65;;;;;;;11.70;49.36;99768.28;10503090;28;20492;-69
2023/11/08 12:33:02;;;;;;;0.68;0.60;;;;;;;11.61;49.65;99755.78;10508324;28;20048;-69
2023/11/08 12:38:04;;;;;;;0.35;0.35;;;;;;;11.95;48.83;99758.66;10494460;28;20055;-68
2023/11/08 12:43:15;;;;;;;1.42;0.80;;;;;;;12.33;47.49;99744.72;10477845;28;20040;-69
2023/11/08 12:48:37;;;;;;;1.60;0.80;;;;;;;12.30;47.36;99739.69;10515245;28;20116;-70
2023/11/08 12:53:46;;;;;;;2.15;0.70;;;;;;;12.55;46.49;99735.25;10515549;28;21020;-68
2023/11/08 12:58:49;;;;;;;0.50;0.50;;;;;;;12.48;47.18;99738.38;10511028;28;20032;-69
2023/11/08 13:03:51;;;;;;;1.40;0.65;;;;;;;12.42;47.26;99734.44;10510663;28;20050;-68
2023/11/08 13:08:54;;;;;;;3.10;1.02;;;;;;;12.36;47.47;99747.97;10509095;28;20047;-70
2023/11/08 13:13:56;;;;;;;3.10;1.40;;;;;;;12.14;46.89;99747.75;10510746;28;20051;-70
2023/11/08 13:19:03;;;;;;;1.50;0.85;;;;;;;11.99;47.38;99738.31;10511724;28;20480;-69
2023/11/08 13:24:07;;;;;;;1.92;0.90;;;;;;;12.24;47.60;99722.56;10509207;28;20050;-69
2023/11/08 13:29:09;;;;;;;4.20;1.48;;;;;;;12.23;47.67;99726.16;10523828;27;20055;-69
2023/11/08 13:34:12;;;;;;;2.78;1.02;;;;;;;12.37;47.62;99731.31;10505006;28;20044;-69
2023/11/08 13:39:14;;;;;;;4.18;1.08;;;;;;;12.54;47.57;99728.31;10508207;28;20036;-69
2023/11/08 13:44:17;;;;;;;3.10;0.95;;;;;;;12.45;47.64;99726.34;10510941;28;20044;-69
2023/11/08 13:49:21;;;;;;;3.05;1.30;;;;;;;12.53;48.02;99723.19;10465275;28;20045;-69
2023/11/08 13:54:23;;;;;;;2.13;1.50;;;;;;;12.42;47.96;99716.06;10466634;28;20091;-69
2023/11/08 13:59:26;;;;;;;3.67;1.95;;;;;;;12.13;48.25;99712.81;10466343;28;20135;-69
2023/11/08 14:04:29;;;;;;;2.13;1.00;;;;;;;11.92;48.68;99718.72;10458489;28;20417;-69
2023/11/08 14:09:32;;;;;;;1.27;0.90;;;;;;;11.89;48.70;99714.53;10463922;28;20119;-69
2023/11/08 14:14:34;;;;;;;2.45;0.80;;;;;;;11.87;48.63;99702.47;10469198;28;20048;-69
2023/11/08 14:19:36;;;;;;;1.67;0.85;;;;;;;11.92;48.41;99688.13;10464890;28;20127;-70
2023/11/08 14:24:38;;;;;;;0.60;0.60;;;;;;;12.04;48.55;99683.81;10468992;28;20056;-70
2023/11/08 14:29:43;;;;;;;2.03;0.90;;;;;;;11.80;48.82;99685.50;10465065;28;20048;-70
2023/11/08 14:34:46;;;;;;;3.20;0.82;;;;;;;11.68;49.04;99684.53;10467379;28;20044;-69
2023/11/08 14:39:48;;;;;;;1.05;0.60;;;;;;;11.66;49.18;99681.19;10466007;28;20255;-70
2023/11/08 14:44:50;;;;;;;0.50;0.50;;;;;;;11.60;49.05;99689.47;10466185;28;20052;-69
2023/11/08 14:49:53;;;;;;;0.90;0.68;;;;;;;11.58;48.99;99690.53;10463018;28;20048;-70
2023/11/08 14:54:57;;;;;;;1.60;0.68;;;;;;;11.35;47.92;99688.59;10465940;28;20131;-70
2023/11/08 14:59:59;;;;;;;0.82;0.77;;;;;;;11.46;48.86;99679.06;10465308;28;20067;-69
2023/11/08 15:05:01;;;;;;;1.08;0.40;;;;;;;11.38;49.16;99673.50;10467016;28;20060;-70
2023/11/08 15:10:04;;;;;;;1.45;0.85;;;;;;;11.17;48.96;99656.63;10459575;28;20051;-70
2023/11/08 15:15:06;;;;;;;0.98;0.80;;;;;;;10.99;49.64;99644.75;10465513;28;20114;-70
2023/11/08 15:20:09;;;;;;;1.35;0.73;;;;;;;10.89;49.82;99630.59;10463510;28;20045;-70
2023/11/08 15:25:11;;;;;;;1.15;0.70;;;;;;;10.69;50.21;99631.03;10466053;28;20055;-69
2023/11/08 15:30:14;;;;;;;4.93;1.42;;;;;;;10.58;50.50;99623.91;10463701;28;20504;-69
2023/11/08 15:35:16;;;;;;;2.80;0.70;;;;;;;10.46;50.60;99627.31;10467567;28;20054;-71
2023/11/08 15:40:18;;;;;;;1.08;0.80;;;;;;;10.39;50.82;99626.00;10460366;28;20122;-69
2023/11/08 15:45:20;;;;;;;0.40;0.40;;;;;;;10.29;50.99;99606.63;10466555;28;20056;-69
2023/11/08 15:50:23;;;;;;;1.02;0.70;;;;;;;10.16;51.02;99608.31;10463282;28;20047;-69
2023/11/08 15:55:27;;;;;;;4.47;0.93;;;;;;;10.22;51.15;99610.53;10466334;28;20110;-69
2023/11/08 16:00:29;;;;;;;0.63;0.60;;;;;;;10.15;50.80;99607.50;10461715;28;20055;-69
2023/11/08 16:05:32;;;;;;;3.60;0.80;;;;;;;10.13;51.00;99593.69;10467013;28;20064;-68
2023/11/08 16:10:35;;;;;;;1.17;0.55;;;;;;;10.13;51.15;99593.69;10462762;28;20048;-67
2023/11/08 16:15:38;;;;;;;1.15;0.68;;;;;;;10.10;51.17;99590.41;10472734;28;20513;-61
2023/11/08 16:20:40;;;;;;;0.60;0.60;;;;;;;9.98;51.43;99591.19;10467972;28;20500;-62
2023/11/08 16:25:42;;;;;;;1.17;0.73;;;;;;;9.90;51.60;99598.66;10475799;28;20454;-63
2023/11/08 16:30:44;;;;;;;1.13;0.80;;;;;;;9.93;51.74;99594.06;10480096;28;20041;-63
2023/11/08 16:36:06;;;;;;;0.82;0.65;;;;;;;9.92;51.78;99581.13;10482841;28;20260;-63
2023/11/08 16:41:08;;;;;;;2.42;1.10;;;;;;;9.95;52.24;99570.50;10480812;28;20106;-63
2023/11/08 16:46:15;;;;;;;2.35;1.23;;;;;;;9.99;52.15;99574.59;10476690;28;20044;-63
2023/11/08 16:51:17;;;;;;;0.90;0.80;;;;;;;10.04;52.05;99570.75;10517420;28;20055;-63
2023/11/08 16:56:21;;;;;;;2.08;0.70;;;;;;;10.06;52.26;99549.75;10515154;28;20036;-63
2023/11/08 17:01:24;;;;;;;3.20;1.40;;;;;;;10.03;52.37;99553.41;10518606;28;20044;-62
2023/11/08 17:06:26;;;;;;;1.27;0.77;;;;;;;9.91;52.67;99550.72;10517721;28;20048;-63
2023/11/08 17:11:28;;;;;;;3.13;0.90;;;;;;;9.86;52.80;99558.84;10531302;27;20048;-63
2023/11/08 17:16:30;;;;;;;0.90;0.80;;;;;;;9.82;53.10;99546.06;10515844;28;20056;-63
2023/11/08 17:21:32;;;;;;;1.38;0.68;;;;;;;9.88;53.01;99548.28;10515760;28;20320;-62
2023/11/08 17:26:34;;;;;;;1.02;0.77;;;;;;;9.97;53.07;99545.13;10514795;28;20046;-63
2023/11/08 17:31:37;;;;;;;0.77;0.68;;;;;;;10.15;52.98;99546.56;10512577;28;20050;-63
2023/11/08 17:36:39;;;;;;;1.08;0.82;;;;;;;10.16;52.89;99538.59;10509813;28;20044;-63
2023/11/08 17:41:41;;;;;;;1.90;1.13;;;;;;;10.23;52.92;99528.59;10515379;28;20059;-63
2023/11/08 17:46:43;;;;;;;1.08;0.70;;;;;;;10.24;52.82;99519.81;10511697;28;20130;-63
2023/11/08 17:51:45;;;;;;;0.88;0.80;;;;;;;10.21;53.16;99512.19;10516595;28;20052;-62
2023/11/08 17:56:47;;;;;;;3.20;1.63;;;;;;;10.12;53.16;99513.63;10517003;28;20595;-62
2023/11/08 18:01:49;;;;;;;2.40;1.30;;;;;;;10.32;53.31;99531.44;10518144;28;20055;-62
2023/11/08 18:06:51;;;;;;;2.67;1.30;;;;;;;10.38;53.13;99525.81;10516974;28;20040;-62
2023/11/08 18:11:53;;;;;;;2.47;0.90;;;;;;;10.45;53.10;99521.88;10517192;28;20072;-63
2023/11/08 18:16:55;;;;;;;2.53;1.00;;;;;;;10.44;53.19;99517.56;10516653;28;20043;-62
2023/11/08 18:21:57;;;;;;;2.97;1.67;;;;;;;10.33;53.47;99506.16;10517049;28;20032;-61
2023/11/08 18:26:59;;;;;;;0.88;0.80;;;;;;;10.34;53.82;99503.44;10516502;28;20046;-61
2023/11/08 18:32:01;;;;;;;1.30;1.00;;;;;;;10.32;53.64;99487.00;10517429;28;20036;-61
2023/11/08 18:37:03;;;;;;;1.33;0.98;;;;;;;10.32;53.84;99486.16;10515802;28;20050;-61
2023/11/08 18:42:05;;;;;;;1.17;0.73;;;;;;;10.35;54.11;99467.69;10499784;28;20172;-61
2023/11/08 18:47:07;;;;;;;2.03;0.73;;;;;;;10.26;54.49;99465.66;10497992;28;20483;-62
2023/11/08 18:52:10;;;;;;;1.70;0.93;;;;;;;10.25;55.12;99445.72;10498854;28;20062;-62
2023/11/08 18:57:12;;;;;;;2.38;1.40;;;;;;;10.28;55.17;99458.56;10515427;28;20070;-63
2023/11/08 19:02:14;;;;;;;0.80;0.80;;;;;;;10.34;54.99;99443.31;10515337;28;20036;-63
2023/11/08 19:07:16;;;;;;;4.30;1.08;;;;;;;10.37;55.46;99450.13;10516117;28;20039;-63
2023/11/08 19:12:18;;;;;;;1.48;0.93;;;;;;;10.36;55.62;99445.81;10514140;28;20056;-62
2023/11/08 19:17:20;;;;;;;1.23;0.73;;;;;;;10.22;57.08;99427.59;10498228;28;20047;-62
2023/11/08 19:22:24;;;;;;;1.10;0.80;;;;;;;10.26;56.56;99423.84;10513574;28;20594;-62
2023/11/08 19:27:26;;;;;;;2.33;1.20;;;;;;;10.27;56.98;99428.16;10515406;28;20499;-62
2023/11/08 19:32:28;;;;;;;1.23;1.00;;;;;;;10.24;57.02;99423.13;10512635;28;20040;-62
2023/11/08 19:37:33;;;;;;;1.25;1.10;;;;;;;10.27;57.27;99429.00;10512005;28;20403;-61
2023/11/08 19:42:36;;;;;;;2.03;1.13;;;;;;;10.20;57.72;99429.47;10515459;28;20500;-62
2023/11/08 19:47:39;;;;;;;3.35;1.48;;;;;;;10.17;57.72;99422.72;10515317;28;20098;-62
2023/11/08 19:52:42;;;;;;;5.97;3.08;;;;;;;10.16;58.12;99409.72;10505116;28;20411;-61
2023/11/08 19:57:44;;;;;;;2.47;1.52;;;;;;;10.19;58.16;99401.69;10503570;28;20393;-61
2023/11/08 20:02:46;;;;;;;1.90;1.20;;;;;;;10.19;58.01;99406.91;10522152;28;20094;-62
2023/11/08 20:07:50;;;;;;;16.52;6.22;;;;;;;10.07;58.11;99405.97;10500778;28;20360;-61
2023/11/08 20:12:53;;;;;;;5.93;2.42;;;;;;;10.00;58.41;99396.00;10505911;28;20040;-62
2023/11/08 20:17:54;;;;;;;4.18;2.15;;;;;;;10.00;58.71;99385.53;10520020;28;20495;-61
2023/11/08 20:22:57;;;;;;;3.25;1.58;;;;;;;9.99;58.59;99383.88;10521317;28;20106;-62
2023/11/08 20:27:59;;;;;;;1.88;1.20;;;;;;;9.92;58.40;99387.81;10516025;28;20044;-62
2023/11/08 20:33:05;;;;;;;1.92;0.80;;;;;;;10.00;58.02;99375.09;10516220;28;20050;-62
2023/11/08 20:38:07;;;;;;;2.17;1.10;;;;;;;10.03;58.34;99373.16;10515359;28;20635;-62
2023/11/08 20:43:10;;;;;;;1.35;0.80;;;;;;;9.94;58.13;99376.34;10491303;28;20048;-61
2023/11/08 20:48:12;;;;;;;3.13;1.10;;;;;;;9.99;58.03;99374.25;10511956;28;20052;-61
2023/11/08 20:53:14;;;;;;;1.42;0.90;;;;;;;9.95;57.82;99364.94;10514220;28;20036;-62
2023/11/08 20:58:16;;;;;;;1.10;0.90;;;;;;;9.99;58.17;99357.75;10517525;28;20173;-61
2023/11/08 21:03:21;;;;;;;7.82;2.10;;;;;;;9.92;57.83;99362.56;10509139;28;20060;-62
2023/11/08 21:08:23;;;;;;;6.05;1.45;;;;;;;9.78;57.75;99361.78;10486700;28;20040;-62
2023/11/08 21:13:25;;;;;;;2.42;1.10;;;;;;;9.63;57.52;99364.41;10505214;28;20175;-62
2023/11/08 21:18:27;;;;;;;5.22;1.67;;;;;;;9.41;57.90;99358.91;10501223;28;20110;-63
2023/11/08 21:23:29;;;;;;;1.00;0.80;;;;;;;9.19;58.53;99345.56;10506346;28;20132;-62
2023/11/08 21:28:31;;;;;;;2.38;1.30;;;;;;;9.09;58.77;99333.19;10513970;28;20040;-62
2023/11/08 21:33:33;;;;;;;6.15;1.90;;;;;;;9.21;58.67;99333.25;10519551;28;20036;-62
2023/11/08 21:38:36;;;;;;;11.40;3.20;;;;;;;9.32;58.76;99328.16;10517819;28;20717;-63
2023/11/08 21:43:40;;;;;;;21.75;6.60;;;;;;;9.38;58.76;99314.72;10510409;28;20052;-62
2023/11/08 21:48:44;;;;;;;19.95;5.25;;;;;;;9.37;58.99;99307.84;10509960;28;20109;-62
2023/11/08 21:53:46;;;;;;;12.23;3.75;;;;;;;9.44;58.91;99308.28;10517828;28;20073;-62
2023/11/08 21:58:48;;;;;;;19.15;7.57;;;;;;;9.50;59.02;99313.94;10511001;28;20568;-62
2023/11/08 22:03:50;;;;;;;8.98;3.35;;;;;;;9.53;58.82;99302.47;10514614;28;20051;-62
2023/11/08 22:08:53;;;;;;;6.95;1.70;;;;;;;9.50;58.54;99284.41;10508905;28;20384;-62
2023/11/08 22:13:58;;;;;;;4.50;1.77;;;;;;;9.47;58.79;99277.59;10494418;28;20044;-62
2023/11/08 22:19:00;;;;;;;2.65;1.40;;;;;;;9.46;58.68;99269.88;10512665;28;20052;-61
2023/11/08 22:24:03;;;;;;;2.30;1.08;;;;;;;9.50;58.63;99261.72;10510960;28;20048;-61
2023/11/08 22:29:06;;;;;;;2.17;1.30;;;;;;;9.58;58.41;99259.44;10512466;28;20066;-61
2023/11/08 22:34:08;;;;;;;3.33;1.50;;;;;;;9.52;58.84;99254.63;10516440;28;20495;-61
2023/11/08 22:39:10;;;;;;;3.08;1.40;;;;;;;9.58;58.57;99253.41;10515385;28;20180;-61
2023/11/08 22:44:12;;;;;;;2.38;1.30;;;;;;;9.65;58.26;99249.44;10498511;28;20050;-61
2023/11/08 22:49:14;;;;;;;2.03;1.10;;;;;;;9.66;57.85;99243.31;10515081;28;20044;-61
2023/11/08 22:54:16;;;;;;;1.27;1.00;;;;;;;9.62;57.59;99226.16;10516186;28;20043;-61
2023/11/08 22:59:18;;;;;;;1.98;1.27;;;;;;;9.67;57.87;99220.66;10507840;28;20131;-61
2023/11/08 23:04:20;;;;;;;2.05;0.93;;;;;;;9.74;57.65;99219.31;10513152;28;20048;-61
2023/11/08 23:09:22;;;;;;;2.20;0.95;;;;;;;9.76;57.00;99204.38;10511351;28;20044;-61
2023/11/08 23:14:25;;;;;;;2.03;1.13;;;;;;;9.77;56.90;99206.88;10491927;28;20120;-61
2023/11/08 23:19:27;;;;;;;1.25;0.90;;;;;;;9.87;56.71;99201.88;10511224;28;20514;-62
2023/11/08 23:24:29;;;;;;;0.73;0.63;;;;;;;9.83;56.94;99205.63;10509992;28;20126;-62
2023/11/08 23:29:31;;;;;;;1.40;1.00;;;;;;;9.80;56.56;99191.00;10512170;28;20289;-62
2023/11/08 23:34:33;;;;;;;1.45;0.90;;;;;;;9.64;56.86;99185.97;10513379;28;20044;-62
2023/11/08 23:39:35;;;;;;;1.75;1.00;;;;;;;9.61;57.02;99191.38;10511174;28;20056;-62